createdAt,value
2016-04-20T08:27:48.863Z,17.38
2016-04-20T08:28:48.646Z,17.35
2016-04-20T08:29:48.836Z,17.32
2016-04-20T08:30:48.636Z,17.36
2016-04-20T08:31:48.419Z,17.38
2016-04-20T08:32:48.407Z,17.38
2016-04-20T08:33:48.707Z,17.32
2016-04-20T08:34:48.818Z,17.38
2016-04-20T08:35:48.634Z,17.36
2016-04-20T08:36:48.824Z,17.36
2016-04-20T08:37:48.795Z,17.38
2016-04-20T08:38:48.392Z,17.36
2016-04-20T08:39:48.582Z,17.35
2016-04-20T08:40:48.601Z,17.38
2016-04-20T08:41:48.571Z,17.32
2016-04-20T08:42:48.574Z,17.38
2016-04-20T08:43:48.390Z,17.36
2016-04-20T08:44:48.377Z,17.36
2016-04-20T08:45:48.567Z,17.38
2016-04-20T08:46:48.351Z,17.36
2016-04-20T08:47:48.354Z,17.39
2016-04-20T08:48:48.560Z,17.38
2016-04-20T08:49:48.812Z,17.39
2016-04-20T08:50:48.565Z,17.43
2016-04-20T08:51:48.552Z,17.4
2016-04-20T08:52:48.539Z,17.43
2016-04-20T08:53:48.323Z,17.45
2016-04-20T08:54:48.528Z,17.45
2016-04-20T08:55:48.531Z,17.45
2016-04-20T08:56:48.315Z,17.43
2016-04-20T08:57:48.319Z,17.39
2016-04-20T08:58:48.742Z,17.43
2016-04-20T08:59:48.308Z,17.46
2016-04-20T09:00:48.498Z,17.39
2016-04-20T09:01:48.500Z,17.49
2016-04-20T09:02:48.503Z,17.5
2016-04-20T09:03:48.490Z,17.49
2016-04-20T09:04:48.805Z,17.49
2016-04-20T09:05:48.479Z,17.45
2016-04-20T09:06:48.483Z,17.47
2016-04-20T09:07:48.282Z,17.49
2016-04-20T09:08:48.473Z,17.5
2016-04-20T09:09:48.476Z,17.47
2016-04-20T09:10:48.463Z,17.43
2016-04-20T09:11:48.668Z,17.52
2016-04-20T09:12:48.452Z,17.49
2016-04-20T09:13:48.252Z,17.5
2016-04-20T09:14:48.442Z,17.52
2016-04-20T09:15:48.445Z,17.4
2016-04-20T09:16:48.650Z,17.52
2016-04-20T09:17:48.434Z,17.55
2016-04-20T09:18:48.437Z,17.5
2016-04-20T09:19:48.471Z,17.5
2016-04-20T09:20:48.411Z,17.5
2016-04-20T09:21:48.429Z,17.47
2016-04-20T09:22:48.416Z,17.49
2016-04-20T09:23:48.403Z,17.45
2016-04-20T09:24:48.608Z,17.49
2016-04-20T09:25:48.408Z,17.49
2016-04-20T09:26:48.002Z,17.49
2016-04-20T09:27:48.194Z,17.5
2016-04-20T09:28:50.838Z,17.47
2016-04-20T09:29:48.182Z,17.46
2016-04-20T09:30:48.593Z,17.43
2016-04-20T09:31:48.374Z,17.46
2016-04-20T09:32:48.582Z,17.45
2016-04-20T09:33:48.585Z,17.46
2016-04-20T09:34:48.367Z,17.45
2016-04-20T09:35:47.979Z,17.46
2016-04-20T09:36:48.356Z,17.47
2016-04-20T09:37:48.578Z,17.5
2016-04-20T09:38:48.142Z,17.6
2016-04-20T09:39:48.349Z,17.55
2016-04-20T09:40:48.336Z,17.54
2016-04-20T09:41:48.339Z,17.55
2016-04-20T09:42:48.545Z,17.54
2016-04-20T09:43:48.125Z,17.6
2016-04-20T09:44:48.519Z,17.55
2016-04-20T09:45:48.521Z,17.6
2016-04-20T09:46:48.321Z,17.58
2016-04-20T09:47:48.511Z,17.57
2016-04-20T09:48:48.295Z,17.49
2016-04-20T09:49:47.908Z,17.57
2016-04-20T09:50:48.300Z,17.5
2016-04-20T09:51:48.506Z,17.54
2016-04-20T09:52:48.290Z,17.57
2016-04-20T09:53:48.308Z,17.58
2016-04-20T09:54:48.077Z,17.52
2016-04-20T09:55:48.486Z,17.52
2016-04-20T09:56:48.066Z,17.52
2016-04-20T09:57:48.288Z,17.6
2016-04-20T09:58:48.463Z,17.5
2016-04-20T09:59:48.262Z,17.55
2016-04-20T10:00:48.874Z,17.52
2016-04-20T10:01:48.048Z,17.52
2016-04-20T10:02:48.254Z,17.57
2016-04-20T10:03:48.242Z,17.55
2016-04-20T10:04:48.462Z,17.58
2016-04-20T10:05:48.247Z,17.57
2016-04-20T10:06:48.250Z,17.49
2016-04-20T10:07:48.236Z,17.55
2016-04-20T10:08:47.833Z,17.57
2016-04-20T10:09:47.820Z,17.49
2016-04-20T10:10:48.214Z,17.69
2016-04-20T10:11:48.014Z,17.63
2016-04-20T10:12:48.422Z,17.65
2016-04-20T10:13:48.206Z,17.6
2016-04-20T10:14:47.803Z,17.5
2016-04-20T10:15:48.415Z,17.57
2016-04-20T10:16:48.198Z,17.55
2016-04-20T10:17:47.983Z,17.55
2016-04-20T10:18:48.204Z,17.73
2016-04-20T10:19:48.394Z,17.66
2016-04-20T10:20:47.991Z,17.69
2016-04-20T10:21:48.181Z,17.54
2016-04-20T10:22:47.964Z,17.68
2016-04-20T10:23:47.967Z,17.69
2016-04-20T10:24:48.174Z,17.73
2016-04-20T10:25:48.004Z,17.6
2016-04-20T10:26:48.163Z,17.62
2016-04-20T10:27:47.946Z,17.65
2016-04-20T10:28:47.949Z,17.74
2016-04-20T10:29:47.749Z,17.73
2016-04-20T10:30:48.346Z,17.69
2016-04-20T10:31:48.145Z,17.63
2016-04-20T10:32:47.945Z,17.69
2016-04-20T10:33:48.135Z,17.71
2016-04-20T10:34:48.341Z,17.71
2016-04-20T10:35:48.125Z,17.62
2016-04-20T10:36:48.315Z,17.66
2016-04-20T10:37:49.004Z,17.66
2016-04-20T10:38:47.914Z,17.68
2016-04-20T10:39:47.917Z,17.68
2016-04-20T10:40:48.106Z,17.69
2016-04-20T10:41:48.110Z,17.71
2016-04-20T10:42:48.097Z,17.73
2016-04-20T10:43:48.115Z,17.8
2016-04-20T10:44:47.898Z,17.77
2016-04-20T10:45:48.292Z,17.73
2016-04-20T10:46:48.279Z,17.8
2016-04-20T10:47:48.079Z,17.79
2016-04-20T10:48:48.284Z,17.76
2016-04-20T10:49:48.069Z,17.86
2016-04-20T10:50:48.071Z,17.76
2016-04-20T10:51:47.886Z,17.86
2016-04-20T10:52:47.889Z,17.8
2016-04-20T10:53:47.860Z,17.81
2016-04-20T10:54:47.847Z,17.86
2016-04-20T10:55:48.053Z,17.83
2016-04-20T10:56:48.056Z,17.96
2016-04-20T10:57:48.043Z,17.84
2016-04-20T10:58:47.827Z,17.87
2016-04-20T10:59:48.235Z,17.81
2016-04-20T11:00:47.816Z,17.79
2016-04-20T11:01:47.819Z,17.96
2016-04-20T11:02:47.822Z,17.84
2016-04-20T11:03:47.825Z,17.88
2016-04-20T11:04:47.609Z,17.94
2016-04-20T11:05:48.002Z,17.87
2016-04-20T11:06:48.020Z,17.88
2016-04-20T11:07:48.007Z,17.94
2016-04-20T11:08:47.792Z,17.86
2016-04-20T11:09:48.013Z,17.94
2016-04-20T11:10:48.187Z,17.87
2016-04-20T11:11:48.003Z,17.88
2016-04-20T11:12:47.990Z,17.92
2016-04-20T11:13:48.227Z,17.88
2016-04-20T11:14:47.776Z,17.86
2016-04-20T11:15:47.561Z,17.9
2016-04-20T11:16:47.984Z,17.84
2016-04-20T11:17:48.175Z,17.98
2016-04-20T11:18:47.959Z,17.92
2016-04-20T11:19:47.978Z,17.88
2016-04-20T11:20:48.168Z,17.98
2016-04-20T11:21:47.764Z,17.95
2016-04-20T11:22:48.158Z,17.88
2016-04-20T11:23:47.738Z,17.96
2016-04-20T11:24:47.960Z,17.96
2016-04-20T11:25:47.947Z,17.88
2016-04-20T11:26:47.933Z,17.9
2016-04-20T11:27:47.921Z,17.98
2016-04-20T11:28:47.720Z,17.84
2016-04-20T11:29:47.926Z,17.94
2016-04-20T11:30:47.929Z,17.87
2016-04-20T11:31:48.260Z,17.9
2016-04-20T11:32:48.122Z,17.9
2016-04-20T11:33:47.906Z,17.96
2016-04-20T11:34:48.112Z,17.86
2016-04-20T11:35:48.115Z,17.86
2016-04-20T11:36:47.710Z,17.9
2016-04-20T11:37:48.104Z,17.88
2016-04-20T11:38:47.701Z,17.9
2016-04-20T11:39:47.891Z,17.9
2016-04-20T11:40:47.690Z,17.86
2016-04-20T11:41:48.084Z,17.95
2016-04-20T11:42:47.883Z,17.87
2016-04-20T11:43:47.870Z,17.94
2016-04-20T11:44:47.872Z,17.96
2016-04-20T11:45:48.079Z,17.94
2016-04-20T11:46:48.081Z,17.84
2016-04-20T11:47:47.849Z,17.94
2016-04-20T11:48:47.868Z,17.9
2016-04-20T11:49:47.652Z,17.92
2016-04-20T11:50:48.061Z,17.96
2016-04-20T11:51:47.845Z,17.95
2016-04-20T11:52:48.050Z,17.88
2016-04-20T11:53:47.428Z,17.99
2016-04-20T11:54:47.837Z,18.01
2016-04-20T11:55:47.839Z,18.01
2016-04-20T11:56:48.030Z,17.95
2016-04-20T11:57:47.829Z,17.95
2016-04-20T11:58:47.613Z,17.96
2016-04-20T11:59:48.023Z,17.98
2016-04-20T12:00:47.822Z,17.95
2016-04-20T12:01:47.810Z,17.86
2016-04-20T12:02:47.812Z,17.88
2016-04-20T12:03:47.814Z,17.92
2016-04-20T12:04:47.598Z,17.98
2016-04-20T12:05:47.664Z,17.95
2016-04-20T12:06:47.588Z,17.98
2016-04-20T12:07:48.076Z,17.98
2016-04-20T12:08:47.984Z,17.99
2016-04-20T12:09:48.002Z,18.05
2016-04-20T12:10:47.989Z,18.08
2016-04-20T12:11:47.789Z,18.05
2016-04-20T12:12:47.980Z,18.06
2016-04-20T12:13:47.779Z,18.01
2016-04-20T12:14:47.970Z,18.05
2016-04-20T12:15:47.768Z,18.06
2016-04-20T12:16:47.755Z,18.02
2016-04-20T12:17:47.962Z,18.05
2016-04-20T12:18:47.965Z,18.05
2016-04-20T12:19:47.748Z,18.08
2016-04-20T12:20:47.564Z,18.11
2016-04-20T12:21:47.753Z,18.08
2016-04-20T12:22:47.741Z,18.11
2016-04-20T12:23:47.525Z,18.1
2016-04-20T12:24:47.542Z,18.06
2016-04-20T12:25:47.733Z,18.08
2016-04-20T12:26:47.719Z,18.05
2016-04-20T12:27:47.722Z,18.02
2016-04-20T12:28:47.319Z,18.13
2016-04-20T12:29:47.713Z,18.08
2016-04-20T12:30:47.715Z,18.03
2016-04-20T12:31:47.703Z,18.05
2016-04-20T12:32:47.907Z,18.08
2016-04-20T12:33:47.691Z,18.08
2016-04-20T12:34:47.913Z,18.08
2016-04-20T12:35:47.432Z,18.1
2016-04-20T12:36:47.888Z,18.06
2016-04-20T12:37:47.688Z,18.05
2016-04-20T12:38:47.487Z,18.11
2016-04-20T12:39:47.880Z,18.14
2016-04-20T12:40:47.274Z,18.05
2016-04-20T12:41:47.668Z,18.05
2016-04-20T12:42:47.670Z,18.13
2016-04-20T12:43:47.875Z,18.08
2016-04-20T12:44:47.675Z,18.13
2016-04-20T12:45:47.459Z,18.08
2016-04-20T12:46:47.243Z,18.06
2016-04-20T12:47:47.652Z,18.08
2016-04-20T12:48:47.639Z,18.11
2016-04-20T12:49:47.642Z,18.1
2016-04-20T12:50:47.503Z,18.14
2016-04-20T12:51:47.850Z,18.11
2016-04-20T12:52:47.634Z,18.17
2016-04-20T12:53:47.417Z,18.19
2016-04-20T12:54:47.420Z,18.19
2016-04-20T12:55:47.408Z,18.17
2016-04-20T12:56:47.614Z,18.16
2016-04-20T12:57:47.819Z,18.17
2016-04-20T12:58:47.416Z,18.19
2016-04-20T12:59:47.606Z,18.19
2016-04-20T13:00:47.811Z,18.2
2016-04-20T13:01:47.798Z,18.23
2016-04-20T13:02:47.598Z,18.17
2016-04-20T13:03:47.602Z,18.17
2016-04-20T13:04:47.791Z,18.2
2016-04-20T13:05:47.919Z,18.16
2016-04-20T13:06:47.593Z,18.13
2016-04-20T13:07:47.580Z,18.19
2016-04-20T13:08:47.583Z,18.13
2016-04-20T13:09:47.383Z,18.16
2016-04-20T13:10:47.573Z,18.23
2016-04-20T13:11:47.575Z,18.21
2016-04-20T13:12:47.375Z,18.23
2016-04-20T13:13:47.346Z,18.21
2016-04-20T13:14:47.568Z,18.17
2016-04-20T13:15:47.399Z,18.17
2016-04-20T13:16:47.745Z,18.16
2016-04-20T13:17:47.545Z,18.13
2016-04-20T13:18:47.751Z,18.17
2016-04-20T13:19:47.534Z,18.23
2016-04-20T13:20:47.287Z,18.21
2016-04-20T13:21:47.540Z,18.21
2016-04-20T13:22:47.730Z,18.26
2016-04-20T13:23:47.530Z,18.23
2016-04-20T13:24:47.516Z,18.21
2016-04-20T13:25:47.113Z,18.13
2016-04-20T13:26:47.319Z,18.19
2016-04-20T13:27:47.728Z,18.26
2016-04-20T13:28:47.528Z,18.2
2016-04-20T13:29:47.514Z,18.29
2016-04-20T13:30:47.299Z,18.29
2016-04-20T13:31:47.097Z,18.19
2016-04-20T13:32:47.305Z,18.2
2016-04-20T13:33:47.494Z,18.35
2016-04-20T13:34:47.685Z,18.32
2016-04-20T13:35:47.827Z,18.27
2016-04-20T13:36:47.268Z,18.19
2016-04-20T13:37:47.488Z,18.26
2016-04-20T13:38:47.477Z,18.29
2016-04-20T13:39:47.260Z,18.34
2016-04-20T13:40:47.279Z,18.24
2016-04-20T13:41:47.266Z,18.36
2016-04-20T13:42:47.659Z,18.32
2016-04-20T13:43:47.098Z,18.29
2016-04-20T13:44:47.462Z,18.26
2016-04-20T13:45:47.245Z,18.31
2016-04-20T13:46:47.654Z,18.34
2016-04-20T13:47:47.656Z,18.29
2016-04-20T13:48:47.238Z,18.34
2016-04-20T13:49:47.256Z,18.29
2016-04-20T13:50:47.243Z,18.35
2016-04-20T13:51:47.230Z,18.27
2016-04-20T13:52:47.015Z,18.45
2016-04-20T13:53:47.439Z,18.34
2016-04-20T13:54:47.222Z,18.38
2016-04-20T13:55:47.209Z,18.38
2016-04-20T13:56:47.212Z,18.29
2016-04-20T13:57:47.230Z,18.45
2016-04-20T13:58:47.203Z,18.31
2016-04-20T13:59:47.408Z,18.42
2016-04-20T14:00:47.005Z,18.5
2016-04-20T14:01:47.211Z,18.41
2016-04-20T14:02:47.213Z,18.45
2016-04-20T14:03:47.200Z,18.47
2016-04-20T14:04:47.405Z,18.5
2016-04-20T14:05:47.393Z,18.45
2016-04-20T14:06:47.582Z,18.44
2016-04-20T14:07:47.383Z,18.36
2016-04-20T14:08:47.385Z,18.42
2016-04-20T14:09:46.966Z,18.41
2016-04-20T14:10:47.172Z,18.49
2016-04-20T14:11:47.174Z,18.47
2016-04-20T14:12:47.162Z,18.44
2016-04-20T14:13:47.368Z,18.51
2016-04-20T14:14:47.355Z,18.44
2016-04-20T14:15:47.170Z,18.51
2016-04-20T14:16:47.562Z,18.51
2016-04-20T14:17:47.143Z,18.5
2016-04-20T14:18:47.146Z,18.49
2016-04-20T14:19:47.352Z,18.5
2016-04-20T14:20:47.340Z,18.53
2016-04-20T14:21:47.139Z,18.54
2016-04-20T14:22:47.346Z,18.57
2016-04-20T14:23:47.129Z,18.63
2016-04-20T14:24:47.320Z,18.63
2016-04-20T14:25:47.526Z,18.63
2016-04-20T14:26:46.919Z,18.65
2016-04-20T14:27:47.312Z,18.6
2016-04-20T14:28:47.127Z,18.61
2016-04-20T14:29:47.334Z,18.66
2016-04-20T14:30:47.508Z,18.71
2016-04-20T14:31:47.104Z,18.63
2016-04-20T14:32:47.309Z,18.72
2016-04-20T14:33:47.109Z,18.69
2016-04-20T14:34:47.300Z,18.71
2016-04-20T14:35:47.303Z,18.72
2016-04-20T14:36:47.305Z,18.72
2016-04-20T14:37:47.073Z,18.69
2016-04-20T14:38:47.092Z,18.65
2016-04-20T14:39:47.095Z,18.65
2016-04-20T14:40:47.269Z,18.61
2016-04-20T14:41:47.272Z,18.69
2016-04-20T14:42:46.869Z,18.74
2016-04-20T14:43:46.871Z,18.72
2016-04-20T14:44:47.467Z,18.72
2016-04-20T14:45:47.111Z,18.71
2016-04-20T14:46:48.364Z,18.74
2016-04-20T14:47:47.475Z,18.76
2016-04-20T14:48:47.056Z,18.74
2016-04-20T14:49:47.450Z,18.81
2016-04-20T14:50:47.452Z,18.78
2016-04-20T14:51:47.455Z,18.79
2016-04-20T14:52:47.051Z,18.82
2016-04-20T14:53:47.460Z,18.84
2016-04-20T14:54:47.041Z,18.76
2016-04-20T14:55:47.435Z,18.82
2016-04-20T14:56:47.437Z,18.81
2016-04-20T14:57:47.034Z,18.81
2016-04-20T14:58:47.240Z,18.84
2016-04-20T14:59:47.227Z,18.78
2016-04-20T15:00:47.010Z,18.87
2016-04-20T15:01:47.216Z,18.76
2016-04-20T15:02:47.218Z,18.81
2016-04-20T15:03:47.221Z,18.82
2016-04-20T15:04:47.005Z,18.79
2016-04-20T15:05:47.211Z,18.87
2016-04-20T15:06:46.808Z,18.76
2016-04-20T15:07:46.998Z,18.79
2016-04-20T15:08:47.017Z,18.81
2016-04-20T15:09:47.395Z,18.94
2016-04-20T15:10:47.194Z,18.91
2016-04-20T15:11:47.400Z,18.81
2016-04-20T15:12:46.980Z,18.78
2016-04-20T15:13:47.170Z,18.9
2016-04-20T15:14:47.172Z,18.81
2016-04-20T15:15:46.972Z,18.74
2016-04-20T15:16:47.163Z,18.76
2016-04-20T15:17:47.180Z,18.81
2016-04-20T15:18:47.183Z,18.93
2016-04-20T15:19:47.171Z,18.93
2016-04-20T15:20:47.377Z,18.91
2016-04-20T15:21:47.160Z,18.93
2016-04-20T15:22:46.944Z,18.9
2016-04-20T15:23:46.963Z,19
2016-04-20T15:24:46.949Z,18.91
2016-04-20T15:25:46.968Z,19.06
2016-04-20T15:26:47.143Z,19.09
2016-04-20T15:27:47.348Z,19.09
2016-04-20T15:28:47.149Z,19
2016-04-20T15:29:47.338Z,19.13
2016-04-20T15:30:47.138Z,19.02
2016-04-20T15:31:46.718Z,19.13
2016-04-20T15:32:47.143Z,19.09
2016-04-20T15:33:47.146Z,19.13
2016-04-20T15:34:46.914Z,19.15
2016-04-20T15:35:46.729Z,19.1
2016-04-20T15:36:47.111Z,19.13
2016-04-20T15:37:46.911Z,19.13
2016-04-20T15:38:47.102Z,19.09
2016-04-20T15:39:47.119Z,19.13
2016-04-20T15:40:47.326Z,19.1
2016-04-20T15:41:47.110Z,19.17
2016-04-20T15:42:47.113Z,19.06
2016-04-20T15:43:47.100Z,19.15
2016-04-20T15:44:47.103Z,19.12
2016-04-20T15:45:46.886Z,19.16
2016-04-20T15:46:47.295Z,19.2
2016-04-20T15:47:46.892Z,19.19
2016-04-20T15:48:47.301Z,19.23
2016-04-20T15:49:46.882Z,19.23
2016-04-20T15:50:47.275Z,19.23
2016-04-20T15:51:47.043Z,19.25
2016-04-20T15:52:46.655Z,19.28
2016-04-20T15:53:47.064Z,19.28
2016-04-20T15:54:47.066Z,19.3
2016-04-20T15:55:46.866Z,19.2
2016-04-20T15:56:47.056Z,19.24
2016-04-20T15:57:47.074Z,19.35
2016-04-20T15:58:47.286Z,19.35
2016-04-20T15:59:47.158Z,19.32
2016-04-20T16:00:46.985Z,19.34
2016-04-20T16:01:46.997Z,19.32
2016-04-20T16:02:47.281Z,19.32
2016-04-20T16:03:47.067Z,19.38
2016-04-20T16:04:47.354Z,19.35
2016-04-20T16:06:49.441Z,19.34
2016-04-20T16:07:02.785Z,19.42
2016-04-20T16:08:02.785Z,19.4
2016-04-20T16:09:02.855Z,19.38
2016-04-20T16:10:03.192Z,19.38
2016-04-20T16:11:02.840Z,19.31
2016-04-20T16:12:03.193Z,19.42
2016-04-20T16:13:02.980Z,19.38
2016-04-20T16:14:03.391Z,19.4
2016-04-20T16:15:03.177Z,19.47
2016-04-20T16:16:03.401Z,19.46
2016-04-20T16:17:03.185Z,19.4
2016-04-20T16:18:03.190Z,19.45
2016-04-20T16:19:03.382Z,19.45
2016-04-20T16:20:03.182Z,19.38
2016-04-20T16:21:03.170Z,19.42
2016-04-20T16:22:03.173Z,19.45
2016-04-20T16:23:03.177Z,19.4
2016-04-20T16:24:02.960Z,19.4
2016-04-20T16:25:03.385Z,19.45
2016-04-20T16:26:03.373Z,19.49
2016-04-20T16:27:02.985Z,19.42
2016-04-20T16:28:02.972Z,19.46
2016-04-20T16:29:02.960Z,19.45
2016-04-20T16:30:03.166Z,19.46
2016-04-20T16:31:02.950Z,19.46
2016-04-20T16:32:03.358Z,19.49
2016-04-20T16:33:02.736Z,19.46
2016-04-20T16:34:03.145Z,19.46
2016-04-20T16:35:03.148Z,19.46
2016-04-20T16:36:03.135Z,19.55
2016-04-20T16:37:02.934Z,19.57
2016-04-20T16:38:02.952Z,19.56
2016-04-20T16:39:03.143Z,19.47
2016-04-20T16:40:03.333Z,19.49
2016-04-20T16:41:03.335Z,19.47
2016-04-20T16:42:02.917Z,19.5
2016-04-20T16:43:03.123Z,19.46
2016-04-20T16:44:03.125Z,19.49
2016-04-20T16:45:03.128Z,19.49
2016-04-20T16:46:02.912Z,19.52
2016-04-20T16:47:03.133Z,19.6
2016-04-20T16:48:02.729Z,19.55
2016-04-20T16:49:02.920Z,19.6
2016-04-20T16:50:03.126Z,19.55
2016-04-20T16:51:03.098Z,19.57
2016-04-20T16:52:03.303Z,19.55
2016-04-20T16:53:03.103Z,19.57
2016-04-20T16:54:03.308Z,19.49
2016-04-20T16:55:03.092Z,19.47
2016-04-20T16:56:02.736Z,19.56
2016-04-20T16:57:03.082Z,19.61
2016-04-20T16:58:03.116Z,19.55
2016-04-20T16:59:03.291Z,19.64
2016-04-20T17:00:03.075Z,19.57
2016-04-20T17:01:02.889Z,19.61
2016-04-20T17:02:03.096Z,19.55
2016-04-20T17:03:03.285Z,19.55
2016-04-20T17:04:02.866Z,19.57
2016-04-20T17:05:02.900Z,19.55
2016-04-20T17:06:03.278Z,19.63
2016-04-20T17:07:03.077Z,19.53
2016-04-20T17:08:03.283Z,19.55
2016-04-20T17:09:03.068Z,19.55
2016-04-20T17:10:03.288Z,19.57
2016-04-20T17:11:03.041Z,19.56
2016-04-20T17:12:02.857Z,19.57
2016-04-20T17:13:02.641Z,19.6
2016-04-20T17:14:03.268Z,19.56
2016-04-20T17:15:03.037Z,19.63
2016-04-20T17:16:02.837Z,19.6
2016-04-20T17:17:03.277Z,19.61
2016-04-20T17:18:03.123Z,19.63
2016-04-20T17:19:03.062Z,19.57
2016-04-20T17:20:03.237Z,19.6
2016-04-20T17:21:03.240Z,19.63
2016-04-20T17:22:02.821Z,19.57
2016-04-20T17:23:03.028Z,19.57
2016-04-20T17:24:02.826Z,19.55
2016-04-20T17:25:03.017Z,19.64
2016-04-20T17:26:03.020Z,19.56
2016-04-20T17:27:02.819Z,19.55
2016-04-20T17:28:03.024Z,19.6
2016-04-20T17:29:03.214Z,19.5
2016-04-20T17:30:03.015Z,19.53
2016-04-20T17:31:03.002Z,19.55
2016-04-20T17:32:02.816Z,19.57
2016-04-20T17:33:03.008Z,19.6
2016-04-20T17:34:03.010Z,19.63
2016-04-20T17:35:02.794Z,19.6
2016-04-20T17:36:03.000Z,19.6
2016-04-20T17:37:02.830Z,19.61
2016-04-20T17:38:03.193Z,19.64
2016-04-20T17:39:02.616Z,19.57
2016-04-20T17:40:02.994Z,19.6
2016-04-20T17:41:02.997Z,19.52
2016-04-20T17:42:02.985Z,19.5
2016-04-20T17:43:02.785Z,19.52
2016-04-20T17:44:02.771Z,19.56
2016-04-20T17:45:02.790Z,19.55
2016-04-20T17:46:02.793Z,19.46
2016-04-20T17:47:03.170Z,19.52
2016-04-20T17:48:02.970Z,19.56
2016-04-20T17:49:03.175Z,19.56
2016-04-20T17:50:02.772Z,19.47
2016-04-20T17:51:02.978Z,19.5
2016-04-20T17:52:02.809Z,19.49
2016-04-20T17:53:02.608Z,19.52
2016-04-20T17:54:07.476Z,19.45
2016-04-20T17:55:03.151Z,19.5
2016-04-20T17:56:02.950Z,19.52
2016-04-20T17:57:03.156Z,19.47
2016-04-20T17:58:03.143Z,19.46
2016-04-20T17:59:02.942Z,19.43
2016-04-20T18:00:02.742Z,19.43
2016-04-20T18:01:02.525Z,19.45
2016-04-20T18:02:02.528Z,19.4
2016-04-20T18:03:02.937Z,19.45
2016-04-20T18:04:02.924Z,19.45
2016-04-20T18:05:02.928Z,19.45
2016-04-20T18:06:03.117Z,19.47
2016-04-20T18:07:02.946Z,19.4
2016-04-20T18:08:02.698Z,19.45
2016-04-20T18:09:02.921Z,19.42
2016-04-20T18:10:02.704Z,19.4
2016-04-20T18:11:02.925Z,19.46
2016-04-20T18:12:02.898Z,19.43
2016-04-20T18:13:02.900Z,19.42
2016-04-20T18:14:02.902Z,19.37
2016-04-20T18:15:03.108Z,19.45
2016-04-20T18:16:02.689Z,19.43
2016-04-20T18:17:02.509Z,19.37
2016-04-20T18:18:02.887Z,19.34
2016-04-20T18:19:03.092Z,19.35
2016-04-20T18:20:02.687Z,19.35
2016-04-20T18:21:02.879Z,19.38
2016-04-20T18:22:02.901Z,19.34
2016-04-20T18:23:03.076Z,19.38
2016-04-20T18:24:02.657Z,19.3
2016-04-20T18:25:03.081Z,19.32
2016-04-20T18:26:03.068Z,19.23
2016-04-20T18:27:02.869Z,19.27
2016-04-20T18:28:02.871Z,19.27
2016-04-20T18:29:03.061Z,19.28
2016-04-20T18:30:02.658Z,19.3
2016-04-20T18:31:02.863Z,19.24
2016-04-20T18:32:03.069Z,19.24
2016-04-20T18:33:02.853Z,19.25
2016-04-20T18:34:02.637Z,19.25
2016-04-20T18:35:02.640Z,19.24
2016-04-20T18:36:02.877Z,19.27
2016-04-20T18:37:02.646Z,19.25
2016-04-20T18:38:02.835Z,19.27
2016-04-20T18:39:02.432Z,19.24
2016-04-20T18:40:03.029Z,19.19
2016-04-20T18:41:02.422Z,19.19
2016-04-20T18:42:03.065Z,19.17
2016-04-20T18:43:02.630Z,19.09
2016-04-20T18:44:02.414Z,19.16
2016-04-20T18:45:02.807Z,19.15
2016-04-20T18:46:02.606Z,19.16
2016-04-20T18:47:02.454Z,19.15
2016-04-20T18:48:02.878Z,19.16
2016-04-20T18:49:03.037Z,19.16
2016-04-20T18:50:02.820Z,19.13
2016-04-20T18:51:02.604Z,19.07
2016-04-20T18:52:02.810Z,19.13
2016-04-20T18:53:03.001Z,19.09
2016-04-20T18:54:02.784Z,19.07
2016-04-20T18:55:02.787Z,19.06
2016-04-20T18:56:02.587Z,19.1
2016-04-20T18:57:02.808Z,19.1
2016-04-20T18:58:02.983Z,19.07
2016-04-20T18:59:02.986Z,19.09
2016-04-20T19:00:02.363Z,19.06
2016-04-20T19:01:02.773Z,18.96
2016-04-20T19:02:02.775Z,19.06
2016-04-20T19:03:02.965Z,18.94
2016-04-20T19:04:02.968Z,18.97
2016-04-20T19:05:02.767Z,18.94
2016-04-20T19:06:02.974Z,19.02
2016-04-20T19:07:02.414Z,18.99
2016-04-20T19:08:02.540Z,18.93
2016-04-20T19:09:02.543Z,18.97
2016-04-20T19:10:02.546Z,19.02
2016-04-20T19:11:02.533Z,18.99
2016-04-20T19:12:02.754Z,18.97
2016-04-20T19:13:02.743Z,18.91
2016-04-20T19:14:02.932Z,18.9
2016-04-20T19:15:02.935Z,18.97
2016-04-20T19:16:02.938Z,18.97
2016-04-20T19:17:02.737Z,18.89
2016-04-20T19:18:02.520Z,18.97
2016-04-20T19:19:02.929Z,18.82
2016-04-20T19:20:02.511Z,18.81
2016-04-20T19:21:02.717Z,18.9
2016-04-20T19:22:02.704Z,18.89
2016-04-20T19:23:02.315Z,18.81
2016-04-20T19:24:02.709Z,18.79
2016-04-20T19:25:02.695Z,18.87
2016-04-20T19:26:02.495Z,18.78
2016-04-20T19:27:02.498Z,18.74
2016-04-20T19:28:02.689Z,18.84
2016-04-20T19:29:02.691Z,18.79
2016-04-20T19:30:02.506Z,18.84
2016-04-20T19:31:02.275Z,18.84
2016-04-20T19:32:02.683Z,18.89
2016-04-20T19:33:02.875Z,18.81
2016-04-20T19:34:02.877Z,18.81
2016-04-20T19:35:02.863Z,18.82
2016-04-20T19:36:02.866Z,18.81
2016-04-20T19:37:02.463Z,18.81
2016-04-20T19:38:02.730Z,18.69
2016-04-20T19:39:02.656Z,18.74
2016-04-20T19:40:02.643Z,18.71
2016-04-20T19:41:02.849Z,18.61
2016-04-20T19:42:02.242Z,18.6
2016-04-20T19:43:02.854Z,18.61
2016-04-20T19:44:02.435Z,18.65
2016-04-20T19:45:02.656Z,18.6
2016-04-20T19:46:02.440Z,18.6
2016-04-20T19:47:02.443Z,18.57
2016-04-20T19:48:02.618Z,18.56
2016-04-20T19:49:02.620Z,18.54
2016-04-20T19:50:02.420Z,18.57
2016-04-20T19:51:02.626Z,18.49
2016-04-20T19:52:02.425Z,18.51
2016-04-20T19:53:02.818Z,18.53
2016-04-20T19:54:02.430Z,18.5
2016-04-20T19:55:02.198Z,18.49
2016-04-20T19:56:02.608Z,18.45
2016-04-20T19:57:02.595Z,18.5
2016-04-20T19:58:02.191Z,18.51
2016-04-20T19:59:02.600Z,18.39
2016-04-20T20:00:02.790Z,18.44
2016-04-20T20:01:02.590Z,18.42
2016-04-20T20:02:02.592Z,18.45
2016-04-20T20:03:02.580Z,18.41
2016-04-20T20:04:02.379Z,18.47
2016-04-20T20:05:02.570Z,18.5
2016-04-20T20:06:02.385Z,18.5
2016-04-20T20:07:02.356Z,18.38
2016-04-20T20:08:02.358Z,18.36
2016-04-20T20:09:02.143Z,18.47
2016-04-20T20:10:02.363Z,18.35
2016-04-20T20:11:02.929Z,18.36
2016-04-20T20:12:02.761Z,18.32
2016-04-20T20:13:02.137Z,18.34
2016-04-20T20:14:02.327Z,18.27
2016-04-20T20:15:02.534Z,18.29
2016-04-20T20:16:02.537Z,18.31
2016-04-20T20:17:02.540Z,18.31
2016-04-20T20:18:02.120Z,18.34
2016-04-20T20:19:02.732Z,18.31
2016-04-20T20:20:02.329Z,18.35
2016-04-20T20:21:02.721Z,18.23
2016-04-20T20:22:02.156Z,18.27
2016-04-20T20:23:02.792Z,18.21
2016-04-20T20:24:02.514Z,18.23
2016-04-20T20:25:02.500Z,18.2
2016-04-20T20:26:02.503Z,18.19
2016-04-20T20:27:02.505Z,18.26
2016-04-20T20:28:02.493Z,18.19
2016-04-20T20:29:02.339Z,18.17
2016-04-20T20:30:02.685Z,18.24
2016-04-20T20:31:02.705Z,18.23
2016-04-20T20:32:02.113Z,18.21
2016-04-20T20:33:02.272Z,18.19
2016-04-20T20:34:02.680Z,18.24
2016-04-20T20:35:02.683Z,18.17
2016-04-20T20:36:02.061Z,18.21
2016-04-20T20:37:02.266Z,18.16
2016-04-20T20:38:02.458Z,18.2
2016-04-20T20:39:02.257Z,18.19
2016-04-20T20:40:02.243Z,18.17
2016-04-20T20:41:02.465Z,18.14
2016-04-20T20:42:02.030Z,18.14
2016-04-20T20:43:02.642Z,18.17
2016-04-20T20:44:02.082Z,18.2
2016-04-20T20:45:02.445Z,18.05
2016-04-20T20:46:02.431Z,18.17
2016-04-20T20:47:02.435Z,18.11
2016-04-20T20:48:02.234Z,18.1
2016-04-20T20:49:02.611Z,18.08
2016-04-20T20:50:02.412Z,18.16
2016-04-20T20:51:02.461Z,18.13
2016-04-20T20:52:02.416Z,18.14
2016-04-20T20:53:02.606Z,18.1
2016-04-20T20:54:02.407Z,18.03
2016-04-20T20:55:02.612Z,18.16
2016-04-20T20:56:02.600Z,18.14
2016-04-20T20:57:02.399Z,18.11
2016-04-20T20:58:02.589Z,18.16
2016-04-20T20:59:02.200Z,18.1
2016-04-20T21:00:03.158Z,18.08
2016-04-20T21:01:02.410Z,18.08
2016-04-20T21:02:02.382Z,18.1
2016-04-20T21:03:02.572Z,18.1
2016-04-20T21:04:02.373Z,18.06
2016-04-20T21:05:01.953Z,18.08
2016-04-20T21:06:02.362Z,18.02
2016-04-20T21:07:02.411Z,18.03
2016-04-20T21:08:02.351Z,18.06
2016-04-20T21:09:02.400Z,18.08
2016-04-20T21:10:02.544Z,17.96
2016-04-20T21:11:02.142Z,17.99
2016-04-20T21:12:02.346Z,18.03
2016-04-20T21:13:02.536Z,17.96
2016-04-20T21:14:02.149Z,18.01
2016-04-20T21:15:02.323Z,17.96
2016-04-20T21:16:02.326Z,17.99
2016-04-20T21:17:02.532Z,17.94
2016-04-20T21:18:02.128Z,17.99
2016-04-20T21:19:02.116Z,17.99
2016-04-20T21:20:02.508Z,18.01
2016-04-20T21:21:02.308Z,17.99
2016-04-20T21:22:02.310Z,17.86
2016-04-20T21:23:02.501Z,17.95